createdAt,value
2019-03-27T00:01:18.684Z,3.00
2019-03-27T00:03:50.186Z,3.00
2019-03-27T00:06:21.696Z,2.94
2019-03-27T00:08:53.206Z,2.90
2019-03-27T00:11:24.802Z,2.83
2019-03-27T00:13:56.333Z,2.61
2019-03-27T00:16:27.822Z,2.59
2019-03-27T00:19:00.402Z,2.74
2019-03-27T00:21:31.912Z,2.67
2019-03-27T00:24:03.398Z,2.66
2019-03-27T00:26:34.885Z,2.56
2019-03-27T00:29:06.400Z,2.52
2019-03-27T00:31:37.916Z,2.53
2019-03-27T00:34:09.481Z,2.43
2019-03-27T00:36:41.014Z,2.44
2019-03-27T00:39:12.533Z,2.38
2019-03-27T00:41:44.027Z,2.43
2019-03-27T00:44:15.607Z,2.33
2019-03-27T00:46:47.162Z,2.27
2019-03-27T00:49:18.710Z,2.32
2019-03-27T00:51:50.194Z,2.32
2019-03-27T00:54:21.708Z,2.39
2019-03-27T00:56:53.282Z,2.29
2019-03-27T00:59:24.790Z,2.32
2019-03-27T01:01:56.292Z,2.34
2019-03-27T01:04:27.779Z,2.30
2019-03-27T01:06:59.370Z,2.28
2019-03-27T01:09:30.905Z,2.10
2019-03-27T01:12:02.556Z,1.99
2019-03-27T01:14:34.136Z,1.92
2019-03-27T01:17:05.709Z,2.04
2019-03-27T01:19:37.566Z,2.03
2019-03-27T01:22:09.149Z,2.02
2019-03-27T01:24:40.707Z,1.98
2019-03-27T01:27:12.199Z,1.84
2019-03-27T01:29:43.715Z,1.94
2019-03-27T01:32:15.230Z,2.00
2019-03-27T01:34:46.806Z,2.01
2019-03-27T01:37:18.312Z,1.83
2019-03-27T01:39:49.864Z,1.91
2019-03-27T01:42:21.390Z,1.96
2019-03-27T01:44:52.942Z,1.92
2019-03-27T01:47:24.451Z,1.82
2019-03-27T01:49:56.036Z,1.85
2019-03-27T01:52:27.547Z,1.71
2019-03-27T01:54:59.076Z,1.74
2019-03-27T01:57:30.606Z,1.70
2019-03-27T02:00:02.094Z,1.77
2019-03-27T02:02:33.747Z,1.75
2019-03-27T02:05:07.175Z,1.68
2019-03-27T02:07:38.689Z,1.57
2019-03-27T02:10:10.810Z,1.54
2019-03-27T02:12:42.364Z,1.57
2019-03-27T02:15:13.878Z,1.59
2019-03-27T02:17:45.396Z,1.56
2019-03-27T02:20:16.978Z,1.52
2019-03-27T02:22:48.481Z,1.51
2019-03-27T02:25:20.130Z,1.54
2019-03-27T02:27:51.710Z,1.58
2019-03-27T02:30:24.363Z,1.49
2019-03-27T02:32:55.856Z,1.55
2019-03-27T02:35:27.379Z,1.61
2019-03-27T02:37:58.887Z,1.64
2019-03-27T02:40:30.412Z,1.62
2019-03-27T02:43:01.996Z,1.65
2019-03-27T02:45:33.549Z,1.61
2019-03-27T02:48:05.054Z,1.57
2019-03-27T02:50:36.711Z,1.48
2019-03-27T02:53:08.239Z,1.46
2019-03-27T02:55:39.785Z,1.43
2019-03-27T02:58:11.548Z,1.41
2019-03-27T03:00:43.047Z,1.45
2019-03-27T03:03:14.594Z,1.45
2019-03-27T03:05:46.109Z,1.47
2019-03-27T03:08:17.615Z,1.38
2019-03-27T03:10:49.102Z,1.42
2019-03-27T03:13:20.608Z,1.40
2019-03-27T03:15:52.117Z,1.43
2019-03-27T03:18:23.745Z,1.40
2019-03-27T03:20:55.332Z,1.45
2019-03-27T03:23:26.919Z,1.34
2019-03-27T03:25:58.436Z,1.36
2019-03-27T03:28:29.926Z,1.42
2019-03-27T03:31:01.449Z,1.40
2019-03-27T03:33:34.646Z,1.33
2019-03-27T03:36:06.209Z,1.32
2019-03-27T03:38:37.790Z,1.33
2019-03-27T03:41:09.310Z,1.26
2019-03-27T03:43:40.871Z,1.27
2019-03-27T03:46:12.429Z,1.24
2019-03-27T03:48:43.987Z,1.26
2019-03-27T03:51:15.487Z,1.15
2019-03-27T03:53:47.002Z,1.18
2019-03-27T03:56:18.563Z,1.18
2019-03-27T03:58:50.110Z,1.19
2019-03-27T04:01:22.078Z,1.17
2019-03-27T04:03:53.592Z,1.09
2019-03-27T04:06:25.607Z,1.07
2019-03-27T04:08:57.107Z,0.99
2019-03-27T04:11:28.674Z,1.04
2019-03-27T04:14:00.245Z,1.12
2019-03-27T04:16:31.783Z,1.15
2019-03-27T04:19:03.430Z,1.15
2019-03-27T04:21:34.983Z,1.13
2019-03-27T04:24:07.616Z,1.05
2019-03-27T04:26:39.143Z,1.13
2019-03-27T04:29:10.653Z,1.12
2019-03-27T04:31:42.154Z,1.18
2019-03-27T04:34:13.662Z,1.20
2019-03-27T04:36:45.172Z,1.21
2019-03-27T04:39:16.755Z,1.22
2019-03-27T04:41:48.287Z,1.23
2019-03-27T04:44:19.773Z,1.28
2019-03-27T04:46:51.270Z,1.18
2019-03-27T04:49:22.766Z,1.22
2019-03-27T04:51:54.292Z,1.22
2019-03-27T04:54:27.116Z,1.14
2019-03-27T04:56:58.811Z,1.25
2019-03-27T04:59:30.347Z,1.31
2019-03-27T05:02:01.855Z,1.32
2019-03-27T05:04:33.412Z,1.45
2019-03-27T05:07:05.118Z,1.45
2019-03-27T05:09:36.605Z,1.45
2019-03-27T05:12:08.097Z,1.58
2019-03-27T05:14:39.594Z,1.59
2019-03-27T05:17:11.180Z,1.56
2019-03-27T05:19:42.723Z,1.59
2019-03-27T05:22:14.377Z,1.69
2019-03-27T05:24:45.887Z,1.83
2019-03-27T05:27:17.401Z,1.85
2019-03-27T05:29:48.899Z,1.91
2019-03-27T05:32:20.435Z,1.93
2019-03-27T05:34:51.948Z,2.02
2019-03-27T05:37:23.476Z,2.02
2019-03-27T05:39:54.977Z,2.26
2019-03-27T05:42:26.539Z,2.33
2019-03-27T05:44:58.056Z,2.47
2019-03-27T05:47:29.631Z,2.59
2019-03-27T05:50:01.176Z,2.82
2019-03-27T05:52:32.768Z,3.05
2019-03-27T05:55:04.727Z,3.42
2019-03-27T05:57:36.241Z,3.82
2019-03-27T06:00:07.986Z,4.18
2019-03-27T06:02:39.486Z,4.62
2019-03-27T06:05:11.010Z,4.90
2019-03-27T06:07:42.528Z,5.28
2019-03-27T06:10:16.325Z,5.59
2019-03-27T06:12:47.365Z,5.88
2019-03-27T06:15:18.952Z,6.27
2019-03-27T06:17:50.481Z,6.39
2019-03-27T06:20:21.999Z,6.60
2019-03-27T06:22:53.494Z,7.06
2019-03-27T06:25:25.145Z,7.52
2019-03-27T06:27:57.126Z,7.80
2019-03-27T06:30:28.680Z,8.09
2019-03-27T06:33:00.176Z,8.13
2019-03-27T06:35:31.765Z,8.41
2019-03-27T06:38:03.358Z,8.47
2019-03-27T06:40:35.016Z,8.55
2019-03-27T06:43:06.602Z,8.58
2019-03-27T06:45:38.294Z,8.66
2019-03-27T06:48:09.891Z,8.75
2019-03-27T06:50:41.439Z,8.84
2019-03-27T06:53:12.979Z,8.76
2019-03-27T06:55:44.633Z,8.81
2019-03-27T06:58:16.204Z,9.06
2019-03-27T07:00:47.818Z,9.26
2019-03-27T07:03:19.398Z,9.38
2019-03-27T07:05:51.338Z,9.49
2019-03-27T07:08:22.851Z,9.58
2019-03-27T07:10:54.332Z,9.59
2019-03-27T07:13:25.979Z,9.76
2019-03-27T07:15:57.506Z,9.93
2019-03-27T07:18:39.570Z,10.00
2019-03-27T07:21:02.261Z,10.00
2019-03-27T07:23:33.812Z,10.02
2019-03-27T07:26:06.540Z,9.94
2019-03-27T07:28:39.194Z,10.00
2019-03-27T07:31:10.715Z,9.84
2019-03-27T07:33:42.217Z,9.68
2019-03-27T07:36:13.792Z,9.74
2019-03-27T07:38:45.301Z,9.87
2019-03-27T07:41:16.859Z,9.82
2019-03-27T07:43:48.372Z,9.44
2019-03-27T07:46:19.884Z,9.38
2019-03-27T07:48:54.083Z,9.56
2019-03-27T07:51:24.600Z,9.58
2019-03-27T07:53:56.147Z,9.22
2019-03-27T07:56:27.647Z,9.31
2019-03-27T07:58:59.922Z,9.51
2019-03-27T08:01:31.531Z,9.45
2019-03-27T08:04:03.108Z,9.58
2019-03-27T08:06:34.593Z,9.54
2019-03-27T08:09:08.263Z,9.66
2019-03-27T08:11:39.914Z,9.66
2019-03-27T08:14:11.554Z,9.74
2019-03-27T08:16:44.225Z,9.89
2019-03-27T08:19:15.769Z,9.94
2019-03-27T08:21:47.255Z,9.98
2019-03-27T08:24:18.795Z,10.13
2019-03-27T08:26:50.377Z,10.31
2019-03-27T08:29:21.955Z,10.45
2019-03-27T08:31:53.499Z,10.61
2019-03-27T08:34:24.993Z,10.41
2019-03-27T08:36:56.524Z,10.54
2019-03-27T08:39:28.046Z,10.83
2019-03-27T08:41:59.534Z,10.90
2019-03-27T08:44:31.052Z,10.70
2019-03-27T08:47:02.704Z,10.06
2019-03-27T08:49:34.208Z,10.18
2019-03-27T08:52:06.797Z,9.56
2019-03-27T08:54:38.323Z,9.83
2019-03-27T08:57:09.819Z,10.18
2019-03-27T08:59:42.400Z,10.29
2019-03-27T09:02:14.048Z,10.03
2019-03-27T09:04:45.569Z,10.35
2019-03-27T09:07:17.162Z,10.53
2019-03-27T09:09:48.675Z,10.65
2019-03-27T09:12:20.205Z,10.26
2019-03-27T09:14:51.765Z,10.05
2019-03-27T09:17:23.277Z,10.21
2019-03-27T09:19:54.809Z,10.67
2019-03-27T09:22:26.305Z,10.86
2019-03-27T09:24:57.885Z,10.89
2019-03-27T09:27:29.425Z,10.58
2019-03-27T09:30:00.990Z,10.64
2019-03-27T09:32:32.498Z,10.80
2019-03-27T09:35:04.153Z,11.05
2019-03-27T09:37:35.676Z,11.11
2019-03-27T09:40:07.190Z,10.36
2019-03-27T09:42:38.788Z,10.25
2019-03-27T09:45:10.273Z,10.26
2019-03-27T09:47:41.793Z,10.78
2019-03-27T09:50:14.944Z,11.02
2019-03-27T09:52:46.477Z,11.15
2019-03-27T09:55:18.002Z,11.42
2019-03-27T09:57:49.655Z,11.34
2019-03-27T10:00:40.812Z,11.36
2019-03-27T10:03:12.382Z,11.50
2019-03-27T10:05:43.879Z,11.14
2019-03-27T10:08:15.464Z,10.73
2019-03-27T10:10:47.028Z,10.74
2019-03-27T10:13:19.410Z,11.07
2019-03-27T10:15:50.904Z,11.40
2019-03-27T10:18:23.481Z,11.59
2019-03-27T10:20:55.146Z,11.68
2019-03-27T10:23:26.635Z,11.64
2019-03-27T10:25:58.144Z,11.39
2019-03-27T10:28:29.662Z,11.50
2019-03-27T10:31:01.177Z,11.82
2019-03-27T10:33:32.690Z,11.90
2019-03-27T10:36:04.181Z,11.76
2019-03-27T10:38:35.693Z,12.00
2019-03-27T10:41:07.198Z,11.79
2019-03-27T10:43:38.695Z,11.78
2019-03-27T10:46:10.299Z,11.96
2019-03-27T10:48:51.989Z,11.93
2019-03-27T10:51:15.055Z,11.71
2019-03-27T10:53:46.633Z,10.99
2019-03-27T10:56:18.217Z,10.90
2019-03-27T10:58:49.822Z,11.46
2019-03-27T11:01:21.301Z,11.88
2019-03-27T11:03:52.821Z,11.45
2019-03-27T11:06:24.388Z,10.95
2019-03-27T11:08:55.957Z,11.28
2019-03-27T11:11:27.486Z,11.48
2019-03-27T11:13:58.990Z,11.61
2019-03-27T11:16:31.466Z,11.79
2019-03-27T11:19:02.965Z,12.00
2019-03-27T11:21:34.482Z,11.58
2019-03-27T11:24:05.983Z,11.34
2019-03-27T11:26:37.540Z,11.61
2019-03-27T11:29:09.058Z,12.02
2019-03-27T11:31:40.650Z,12.24
2019-03-27T11:34:12.181Z,12.67
2019-03-27T11:36:43.679Z,13.07
2019-03-27T11:39:15.337Z,12.93
2019-03-27T11:41:47.002Z,12.89
2019-03-27T11:44:19.465Z,12.79
2019-03-27T11:46:51.049Z,12.73
2019-03-27T11:49:22.562Z,12.80
2019-03-27T11:51:54.064Z,12.83
2019-03-27T11:54:25.573Z,12.83
2019-03-27T11:56:57.092Z,12.07
2019-03-27T11:59:28.621Z,11.59
2019-03-27T12:02:00.162Z,11.41
2019-03-27T12:04:31.742Z,11.36
2019-03-27T12:07:03.245Z,11.38
2019-03-27T12:09:34.834Z,11.40
2019-03-27T12:12:06.360Z,11.56
2019-03-27T12:14:37.921Z,11.87
2019-03-27T12:17:09.541Z,11.84
2019-03-27T12:19:41.060Z,11.57
2019-03-27T12:22:12.618Z,11.94
2019-03-27T12:24:44.129Z,12.10
2019-03-27T12:27:15.659Z,11.73
2019-03-27T12:29:47.170Z,11.65
2019-03-27T12:32:18.657Z,11.78
2019-03-27T12:34:50.169Z,11.41
2019-03-27T12:37:21.660Z,11.28
2019-03-27T12:39:53.175Z,11.05
2019-03-27T12:42:24.701Z,11.07
2019-03-27T12:44:56.285Z,10.83
2019-03-27T12:47:27.872Z,10.79
2019-03-27T12:49:59.388Z,10.86
2019-03-27T12:52:31.026Z,11.00
2019-03-27T12:55:02.544Z,10.81
2019-03-27T12:57:34.131Z,10.90
2019-03-27T13:00:08.437Z,10.67
2019-03-27T13:02:40.991Z,10.63
2019-03-27T13:05:12.569Z,10.77
2019-03-27T13:07:50.045Z,11.12
2019-03-27T13:10:17.285Z,11.38
2019-03-27T13:12:48.808Z,11.54
2019-03-27T13:15:20.335Z,11.62
2019-03-27T13:17:51.866Z,11.67
2019-03-27T13:20:23.378Z,11.67
2019-03-27T13:22:54.901Z,11.70
2019-03-27T13:25:26.418Z,11.52
2019-03-27T13:27:58.022Z,11.22
2019-03-27T13:30:29.557Z,10.89
2019-03-27T13:33:01.148Z,10.76
2019-03-27T13:35:33.815Z,10.63
2019-03-27T13:38:05.330Z,10.68
2019-03-27T13:40:36.822Z,10.71
2019-03-27T13:43:08.339Z,10.54
2019-03-27T13:45:39.980Z,10.44
2019-03-27T13:48:11.486Z,10.59
2019-03-27T13:50:42.973Z,10.73
2019-03-27T13:53:14.562Z,10.97
2019-03-27T13:55:46.150Z,11.30
2019-03-27T13:58:17.645Z,11.16
2019-03-27T14:00:49.165Z,11.15
2019-03-27T14:03:20.679Z,11.22
2019-03-27T14:05:52.193Z,11.21
2019-03-27T14:08:23.775Z,11.25
2019-03-27T14:10:55.287Z,11.00
2019-03-27T14:13:26.816Z,10.80
2019-03-27T14:15:58.333Z,10.94
2019-03-27T14:18:29.846Z,11.10
2019-03-27T14:21:01.344Z,10.99
2019-03-27T14:23:33.037Z,11.13
2019-03-27T14:26:04.559Z,11.10
2019-03-27T14:28:36.147Z,11.26
2019-03-27T14:31:09.302Z,11.55
2019-03-27T14:33:40.840Z,11.84
2019-03-27T14:36:12.427Z,11.93
2019-03-27T14:38:44.011Z,12.05
2019-03-27T14:41:15.593Z,12.02
2019-03-27T14:43:47.261Z,12.05
2019-03-27T14:46:18.779Z,12.17
2019-03-27T14:48:50.292Z,12.18
2019-03-27T14:51:21.908Z,12.21
2019-03-27T14:53:53.426Z,12.13
2019-03-27T14:56:24.925Z,11.90
2019-03-27T14:58:56.536Z,11.80
2019-03-27T15:01:28.077Z,11.62
2019-03-27T15:03:59.765Z,11.65
2019-03-27T15:06:31.286Z,11.59
2019-03-27T15:09:03.981Z,11.60
2019-03-27T15:11:35.693Z,11.58
2019-03-27T15:14:07.200Z,11.49
2019-03-27T15:16:38.772Z,11.46
2019-03-27T15:19:10.305Z,11.48
2019-03-27T15:21:41.808Z,11.43
2019-03-27T15:24:13.310Z,11.48
2019-03-27T15:26:44.898Z,11.58
2019-03-27T15:29:16.417Z,11.47
2019-03-27T15:31:48.017Z,11.58
2019-03-27T15:34:22.611Z,11.66
2019-03-27T15:36:54.192Z,11.64
2019-03-27T15:39:25.706Z,11.49
2019-03-27T15:41:57.198Z,11.41
2019-03-27T15:44:28.761Z,11.43
2019-03-27T15:47:00.270Z,11.40
2019-03-27T15:49:31.850Z,11.35
2019-03-27T15:52:03.350Z,11.37
2019-03-27T15:54:34.859Z,11.34
2019-03-27T15:57:06.517Z,11.32
2019-03-27T15:59:38.033Z,11.32
2019-03-27T16:02:09.917Z,11.34
2019-03-27T16:04:41.502Z,11.27
2019-03-27T16:07:13.219Z,11.26
2019-03-27T16:09:44.849Z,11.27
2019-03-27T16:12:16.317Z,11.14
2019-03-27T16:14:47.906Z,11.19
2019-03-27T16:17:19.411Z,11.14
2019-03-27T16:19:50.920Z,11.21
2019-03-27T16:22:22.532Z,11.21
2019-03-27T16:24:55.744Z,11.19
2019-03-27T16:27:28.951Z,11.21
2019-03-27T16:30:00.627Z,11.22
2019-03-27T16:32:32.261Z,11.21
2019-03-27T16:35:08.988Z,11.19
2019-03-27T16:37:41.558Z,11.14
2019-03-27T16:40:20.273Z,11.04
2019-03-27T16:43:01.209Z,11.05
2019-03-27T16:45:37.214Z,10.97
2019-03-27T16:48:08.862Z,10.86
2019-03-27T16:50:40.444Z,10.86
2019-03-27T16:53:28.892Z,10.80
2019-03-27T16:56:00.612Z,10.84
2019-03-27T16:58:32.144Z,10.79
2019-03-27T17:01:03.714Z,10.78
2019-03-27T17:03:35.260Z,10.74
2019-03-27T17:06:06.782Z,10.72
2019-03-27T17:08:38.369Z,10.77
2019-03-27T17:11:10.082Z,10.70
2019-03-27T17:13:43.215Z,10.76
2019-03-27T17:16:14.794Z,10.71
2019-03-27T17:18:49.164Z,10.70
2019-03-27T17:21:22.546Z,10.72
2019-03-27T17:23:54.098Z,10.70
2019-03-27T17:26:25.657Z,10.75
2019-03-27T17:28:57.212Z,10.72
2019-03-27T17:31:28.760Z,10.65
2019-03-27T17:34:00.304Z,10.70
2019-03-27T17:36:31.881Z,10.70
2019-03-27T17:39:08.416Z,10.74
2019-03-27T17:41:40.387Z,10.70
2019-03-27T17:44:12.013Z,10.70
2019-03-27T17:46:43.680Z,10.59
2019-03-27T17:49:16.651Z,10.52
2019-03-27T17:51:49.798Z,10.55
2019-03-27T17:54:22.150Z,10.57
2019-03-27T17:56:53.726Z,10.54
2019-03-27T17:59:25.281Z,10.56
2019-03-27T18:01:59.839Z,10.48
2019-03-27T18:04:31.362Z,10.43
2019-03-27T18:07:02.885Z,10.40
2019-03-27T18:09:34.502Z,10.40
2019-03-27T18:12:06.026Z,10.39
2019-03-27T18:14:37.648Z,10.43
2019-03-27T18:17:09.174Z,10.45
2019-03-27T18:19:40.686Z,10.46
2019-03-27T18:22:12.214Z,10.47
2019-03-27T18:24:43.713Z,10.46
2019-03-27T18:27:15.293Z,10.43
2019-03-27T18:29:46.931Z,10.45
2019-03-27T18:32:18.451Z,10.50
2019-03-27T18:34:49.973Z,10.46
2019-03-27T18:37:22.617Z,10.48
2019-03-27T18:39:54.200Z,10.52
2019-03-27T18:42:25.723Z,10.51
2019-03-27T18:44:58.317Z,10.51
2019-03-27T18:47:29.898Z,10.52
2019-03-27T18:50:02.964Z,10.44
2019-03-27T18:52:34.554Z,10.46
2019-03-27T18:55:07.138Z,10.50
2019-03-27T18:57:38.835Z,10.47
2019-03-27T19:00:10.396Z,10.49
2019-03-27T19:02:41.990Z,10.50
2019-03-27T19:05:13.589Z,10.46
2019-03-27T19:07:45.110Z,10.49
2019-03-27T19:10:16.634Z,10.51
2019-03-27T19:12:48.247Z,10.41
2019-03-27T19:15:20.901Z,10.42
2019-03-27T19:17:52.440Z,10.30
2019-03-27T19:20:23.949Z,10.27
2019-03-27T19:22:55.478Z,10.24
2019-03-27T19:25:27.129Z,10.19
2019-03-27T19:27:59.720Z,10.08
2019-03-27T19:30:31.238Z,10.04
2019-03-27T19:33:02.965Z,9.98
2019-03-27T19:35:34.546Z,9.89
2019-03-27T19:38:06.135Z,9.90
2019-03-27T19:40:38.922Z,9.97
2019-03-27T19:43:10.579Z,10.01
2019-03-27T19:45:42.298Z,10.05
2019-03-27T19:48:14.057Z,10.01
2019-03-27T19:50:51.247Z,9.90
2019-03-27T19:53:22.944Z,9.84
2019-03-27T19:55:54.628Z,9.83
2019-03-27T19:58:26.843Z,9.75
2019-03-27T20:01:03.902Z,9.76
2019-03-27T20:03:40.340Z,9.76
2019-03-27T20:06:15.212Z,9.69
2019-03-27T20:08:48.433Z,9.76
2019-03-27T20:11:20.065Z,9.67
2019-03-27T20:13:51.629Z,9.62
2019-03-27T20:16:24.242Z,9.60
2019-03-27T20:18:55.911Z,9.60
2019-03-27T20:24:19.611Z,9.71
2019-03-27T20:26:52.999Z,9.67
2019-03-27T20:29:35.818Z,9.68
2019-03-27T20:32:09.183Z,9.59
2019-03-27T20:34:45.925Z,9.56
2019-03-27T20:40:51.772Z,9.59
2019-03-27T20:49:51.619Z,9.61
2019-03-27T20:52:29.415Z,9.68
2019-03-27T20:55:01.140Z,9.70
2019-03-27T20:57:34.117Z,9.68
2019-03-27T21:00:07.349Z,9.68
2019-03-27T21:02:39.224Z,9.63
2019-03-27T21:05:10.821Z,9.59
2019-03-27T21:07:46.558Z,9.65
2019-03-27T21:10:19.081Z,9.65
2019-03-27T21:12:50.662Z,9.64
2019-03-27T21:15:22.231Z,9.68
2019-03-27T21:17:53.771Z,9.64
2019-03-27T21:20:25.303Z,9.68
2019-03-27T21:22:56.934Z,9.69
2019-03-27T21:25:30.276Z,9.67
2019-03-27T21:28:01.928Z,9.72
2019-03-27T21:30:38.539Z,9.67
2019-03-27T21:33:11.652Z,9.66
2019-03-27T21:35:43.265Z,9.67
2019-03-27T21:38:14.941Z,9.63
2019-03-27T21:40:46.521Z,9.67
2019-03-27T21:43:18.198Z,9.69
2019-03-27T21:45:49.867Z,9.70
2019-03-27T21:48:21.494Z,9.70
2019-03-27T21:50:55.438Z,9.69
2019-03-27T21:53:27.181Z,9.76
2019-03-27T21:55:58.733Z,9.75
2019-03-27T21:58:30.316Z,9.75
2019-03-27T22:01:02.921Z,9.77
2019-03-27T22:03:34.577Z,9.73
2019-03-27T22:06:06.085Z,9.75
2019-03-27T22:08:39.231Z,9.76
2019-03-27T22:11:10.685Z,9.77
2019-03-27T22:13:42.186Z,9.80
2019-03-27T22:16:13.723Z,9.84
2019-03-27T22:18:45.236Z,9.87
2019-03-27T22:21:18.185Z,9.85
2019-03-27T22:23:49.779Z,9.79
2019-03-27T22:26:21.302Z,9.84
2019-03-27T22:28:52.808Z,9.84
2019-03-27T22:31:24.323Z,9.82
2019-03-27T22:33:55.959Z,9.91
2019-03-27T22:36:27.528Z,9.92
2019-03-27T22:38:59.027Z,9.98
2019-03-27T22:41:32.225Z,10.00
2019-03-27T22:44:04.212Z,9.99
2019-03-27T22:46:35.726Z,10.02
2019-03-27T22:49:07.239Z,9.98
2019-03-27T22:51:38.744Z,9.93
2019-03-27T22:54:10.240Z,9.97
2019-03-27T22:56:41.767Z,9.95
2019-03-27T22:59:13.275Z,9.98
2019-03-27T23:01:46.186Z,9.95
2019-03-27T23:04:17.736Z,9.98
2019-03-27T23:06:49.244Z,9.92
2019-03-27T23:09:20.829Z,9.93
2019-03-27T23:11:52.420Z,9.94
2019-03-27T23:14:24.010Z,9.95
2019-03-27T23:16:55.599Z,9.85
2019-03-27T23:19:27.161Z,9.88
2019-03-27T23:21:58.650Z,9.90
2019-03-27T23:24:30.241Z,9.96
2019-03-27T23:27:01.829Z,9.95
2019-03-27T23:29:33.409Z,9.99
2019-03-27T23:32:04.998Z,10.01
2019-03-27T23:34:36.512Z,10.00
2019-03-27T23:37:08.099Z,10.00
2019-03-27T23:39:39.743Z,10.02
2019-03-27T23:42:11.240Z,10.07
2019-03-27T23:44:42.850Z,10.07
2019-03-27T23:47:14.363Z,10.10
2019-03-27T23:49:45.898Z,10.10
2019-03-27T23:52:17.469Z,10.11
2019-03-27T23:54:49.305Z,10.13
2019-03-27T23:57:20.828Z,10.14
2019-03-27T23:59:52.412Z,10.10
